Airfield :
LOGIN :

Register | Disclaimer

   EN    FR    IT 

 










Legend :    VFR   Marginal VFR   IFR   Intensive IFR   Very Intensive IFR
Visi :
Ceiling :
>= 8 km
>= 3000ft
5 to 8 km
1000 to 3000 ft
1500m to 5 km
500 to 1000 ft
800 to 1500m
200 to 500 ft
< 800m
< 200 ft
Symbols :   Thunderstorms  Fog  Heavy snow  Heavy precipitations  Wind > 20 kt
SIGMETs :     Misc.  Thunderstorms  Icing  Turbulence  Mountain Waves  Volcanic Ashes







- Airport Elevation : 49 ft
- IATA code : GLZ


EHGR - Gilze-Rijen Airbase

CURRENT METAR :
  • 182255Z AUTO 27005KT 240V300 9999 FEW015CB SCT030 OVC041 06/05 Q1015 RERA BLU

EXPIRED METARs :
  • 182240Z AUTO 29006KT 250V320 9999 -RA FEW015CB BKN025 BKN029 06/05 Q1016 BLU
  • 182229Z AUTO 34007KT 260V030 5000 RA FEW011 FEW015CB BKN016 BKN019 06/05 Q1016 WHT
  • 182225Z AUTO 01005KT 260V040 4100 RA BKN015CB OVC019 06/05 Q1016 GRN
  • 182158Z AUTO VRB02KT 6000 BR FEW015CB BKN021 OVC024 06/06 Q1016 WHT
  • 182138Z AUTO 32003KT 9999 FEW015CB SCT024 OVC028 06/05 Q1016 WHT
  • 182125Z AUTO 24003KT 9000 BR FEW032 BKN053 OVC058 06/05 Q1016 BLU
  • 182055Z AUTO 25003KT 9999 SCT031 BKN063 BKN069 07/05 Q1016 BLU
  • 182042Z AUTO 29004KT 9999 FEW021 SCT025 BKN034 06/05 Q1016 BLU
  • 182036Z AUTO 30004KT 260V340 9999 SCT021 SCT025 BKN033 06/05 Q1016 WHT

Expired Forecast.
No reported NOTAMs for that airfield.



MET'MAP, your aeronautical weather chart ! - Copyright ORBIFLY December 2007 - Disclaimer

ORBIFLY MET'MAP TEAM :

Programming & Development : Alexandra Zaïnal
Concept & Development : Baudouin d'Aumeries
Co-Development & Prog : Marc-Olivier Méhu
Technical & hardware support : Manuel Goepfert

Contact : metmap@orbifly.com




SOURCES & CREDITS :

   NOAA